Grider Field
KPBF : now visible

Airfield :











YOU CAN JOIN US ON...

 
LOGIN :

Register | Disclaimer

   EN    FR    IT 

 









Legend :    VFR   Marginal VFR   IFR   Intensive IFR   Very Intensive IFR
Visi :
Ceiling :
>= 8 km
>= 3000ft
5 to 8 km
1000 to 3000 ft
1500m to 5 km
500 to 1000 ft
800 to 1500m
200 to 500 ft
< 800m
< 200 ft
Symbols :   Thunderstorms  Fog  Heavy snow  Heavy precipitations  Wind > 20 kt







- Airport Elevation : 206 ft


KPBF - Grider Field

CURRENT METAR :
  • 200953Z AUTO 09005KT 3SM BR CLR 21/21 A3005 RMK AO2 SLP172 T02110206

EXPIRED METARs :
  • 200931Z AUTO 11003KT 3SM BR FEW001 21/21 A3004 RMK AO2 T02110206
  • 200921Z AUTO 12004KT 2SM BR SCT001 21/21 A3004 RMK AO2 T02110206
  • 200913Z AUTO 13004KT 1/2SM FG VV001 21/20 A3004 RMK AO2 T02110200
  • 200853Z AUTO 00000KT 1/4SM FG VV001 21/21 A3004 RMK AO2 SLP170 T02110206 52006
  • 200832Z AUTO 00000KT 1/4SM FG VV002 21/21 A3004 RMK AO2 T02110206
  • 200753Z AUTO 00000KT 1/2SM FG VV002 21/21 A3004 RMK AO2 SLP168 T02110206
  • 200736Z AUTO 00000KT 4SM BR FEW003 22/21 A3004 RMK AO2 T02220206
  • 200729Z AUTO 00000KT 4SM BR BKN003 22/21 A3004 RMK AO2 T02220211

TAF KPBF
Valid from the 20 at 10:00 until the 21 at 06:00 UTC


200933Z 2010/2106 13006KT 2SM BR SCT001
FM201200 12003KT P6SM OVC090
FM201900 18006KT P6SM VCSH BKN030
No reported NOTAMs for that airfield.



MET'MAP, your aeronautical weather chart ! - Copyright ORBIFLY December 2007 - Disclaimer

ORBIFLY MET'MAP TEAM :

Programming & Development : Alexandra Zaïnal
Concept & Development : Baudouin d'Aumeries
Co-Development & Prog : Marc-Olivier Méhu
Technical & hardware support : Manuel Goepfert

Contact : metmap@orbifly.com




SOURCES & CREDITS :

   NOAA       Earth
Advisory